Time;durP1;ratioP1;P1;durP2;ratioP2;P2;SDS_P1;SDS_P2;PMS_P1;PMS_P2;Temp;Humidity;BMP_temperature;BMP_pressure;BME280_temperature;BME280_humidity;BME280_pressure;Samples;Min_cycle;Max_cycle;Signal;HPM_P1;HPM_P2
2023/04/02 00:01:00;;;;;;;6.00;0.40;;;;;;;-0.22;50.04;101595.34;4998144;28;20411;-71
2023/04/02 00:04:02;;;;;;;2.85;0.38;;;;;;;-0.16;50.05;101590.31;4981309;28;20066;-72
2023/04/02 00:06:29;;;;;;;2.15;0.30;;;;;;;-0.10;49.83;101596.38;4983200;28;20046;-71
2023/04/02 00:08:57;;;;;;;3.85;0.30;;;;;;;-0.23;49.99;101603.91;4981535;28;20038;-71
2023/04/02 00:11:34;;;;;;;3.60;0.80;;;;;;;-0.01;49.37;101609.41;4983805;28;20026;-71
2023/04/02 00:14:01;;;;;;;7.68;0.55;;;;;;;-0.08;49.34;101610.09;4999593;28;20169;-72
2023/04/02 00:16:27;;;;;;;4.97;0.40;;;;;;;-0.08;49.46;101615.25;4982273;28;20033;-71
2023/04/02 00:18:57;;;;;;;5.80;0.60;;;;;;;-0.20;49.70;101619.34;4998245;28;20482;-68
2023/04/02 00:21:29;;;;;;;2.13;0.35;;;;;;;-0.15;49.56;101625.44;4980196;28;21011;-69
2023/04/02 00:23:59;;;;;;;3.33;0.43;;;;;;;-0.72;50.15;101631.28;4999787;28;20042;-70
2023/04/02 00:26:51;;;;;;;1.23;0.80;;;;;;;-0.15;49.13;101633.16;4984241;28;20044;-77
2023/04/02 00:29:18;;;;;;;2.90;0.25;;;;;;;-0.18;49.36;101635.66;4999952;28;20344;-73
2023/04/02 00:31:52;;;;;;;5.18;0.77;;;;;;;-0.35;49.78;101645.66;4985163;28;20407;-71
2023/04/02 00:34:22;;;;;;;7.10;0.40;;;;;;;-0.29;49.50;101650.03;4982378;28;20055;-72
2023/04/02 00:36:49;;;;;;;2.60;0.30;;;;;;;-0.35;49.68;101647.34;4983141;28;20038;-72
2023/04/02 00:39:22;;;;;;;3.78;0.50;;;;;;;-0.19;49.50;101653.59;4983908;28;20042;-72
2023/04/02 00:41:57;;;;;;;1.50;0.30;;;;;;;-0.65;50.39;101663.94;4983771;28;20052;-72
2023/04/02 00:44:28;;;;;;;2.80;0.20;;;;;;;-0.61;50.20;101658.03;4958120;28;20419;-72
2023/04/02 00:46:56;;;;;;;6.57;0.47;;;;;;;-0.23;49.36;101674.97;4999895;28;20418;-72
2023/04/02 00:49:37;;;;;;;2.72;0.38;;;;;;;-0.47;49.85;101673.69;4981616;28;20045;-72
2023/04/02 00:52:09;;;;;;;2.80;0.20;;;;;;;-0.33;50.04;101673.94;4999980;28;20038;-73
2023/04/02 00:54:44;;;;;;;3.75;0.30;;;;;;;-0.37;49.58;101677.28;4980345;28;20052;-74
2023/04/02 00:57:16;;;;;;;9.23;0.40;;;;;;;-0.28;49.58;101687.75;4979738;28;20065;-74
2023/04/02 01:00:07;;;;;;;0.80;0.47;;;;;;;-0.27;49.82;101684.31;4982929;28;21467;-75
2023/04/02 01:02:37;;;;;;;8.15;0.47;;;;;;;-0.42;49.74;101689.19;4982047;28;20056;-76
2023/04/02 01:05:14;;;;;;;3.50;0.38;;;;;;;-0.20;49.33;101693.88;5006611;28;20097;-75
2023/04/02 01:07:46;;;;;;;0.80;0.30;;;;;;;-0.38;50.15;101702.09;4984514;28;20052;-75
2023/04/02 01:10:17;;;;;;;3.75;0.35;;;;;;;-0.45;50.17;101699.41;4990306;28;20964;-75
2023/04/02 01:12:58;;;;;;;2.10;0.10;;;;;;;-0.38;49.82;101706.38;4977296;28;21375;-73
2023/04/02 01:15:37;;;;;;;3.28;0.40;;;;;;;-0.36;49.83;101712.41;5004048;28;20120;-71
2023/04/02 01:18:55;;;;;;;0.98;0.20;;;;;;;-0.51;50.05;101712.97;4985967;28;20068;-71
2023/04/02 01:21:30;;;;;;;3.85;0.22;;;;;;;-0.40;49.87;101718.31;4926476;28;20047;-71
2023/04/02 01:24:13;;;;;;;3.42;0.30;;;;;;;-0.53;49.96;101717.22;4940883;28;20047;-69
2023/04/02 01:26:56;;;;;;;3.17;0.30;;;;;;;-0.33;49.80;101730.44;4973837;28;20724;-69
2023/04/02 01:29:29;;;;;;;2.55;1.13;;;;;;;-0.32;49.98;101731.34;5001331;28;20038;-69
2023/04/02 01:31:59;;;;;;;6.25;0.90;;;;;;;-0.43;49.95;101734.53;4989313;28;20129;-70
2023/04/02 01:34:27;;;;;;;4.25;0.30;;;;;;;-0.28;49.37;101741.69;4969684;28;20041;-69
2023/04/02 01:37:08;;;;;;;3.10;0.30;;;;;;;-0.30;49.72;101751.06;4978790;28;20116;-71
2023/04/02 01:39:33;;;;;;;1.98;0.30;;;;;;;-0.38;49.53;101740.63;4966664;28;20309;-71
2023/04/02 01:42:24;;;;;;;3.63;0.30;;;;;;;-0.42;49.65;101754.25;5004737;28;20045;-71
2023/04/02 01:45:01;;;;;;;5.82;0.22;;;;;;;-0.33;49.58;101763.84;4967418;28;20935;-70
2023/04/02 01:47:28;;;;;;;4.57;0.45;;;;;;;-0.35;49.25;101762.94;4985664;28;20029;-70
2023/04/02 01:50:00;;;;;;;1.98;0.55;;;;;;;-0.31;49.55;101769.00;4986280;28;20072;-72
2023/04/02 01:52:37;;;;;;;1.13;0.20;;;;;;;-0.25;49.09;101772.56;4986888;28;20042;-72
2023/04/02 01:55:05;;;;;;;2.95;0.13;;;;;;;-0.26;49.42;101776.00;4965356;28;20111;-72
2023/04/02 01:57:31;;;;;;;8.65;0.60;;;;;;;-0.35;49.38;101783.50;4986193;28;20041;-72
2023/04/02 01:59:59;;;;;;;1.17;0.32;;;;;;;-0.63;50.10;101788.06;4986278;28;20330;-72
2023/04/02 02:02:25;;;;;;;4.13;0.60;;;;;;;-0.30;48.76;101787.03;4987897;28;20132;-73
2023/04/02 02:04:50;;;;;;;3.20;0.40;;;;;;;-0.46;49.39;101791.00;4982518;28;20453;-72
2023/04/02 02:07:19;;;;;;;2.05;0.95;;;;;;;-0.46;49.35;101797.81;4968809;28;20030;-74
2023/04/02 02:09:50;;;;;;;1.88;0.20;;;;;;;-0.41;49.02;101789.38;5000865;28;20348;-73
2023/04/02 02:12:16;;;;;;;2.20;0.57;;;;;;;-0.37;48.88;101800.56;4976157;28;20065;-70
2023/04/02 02:14:50;;;;;;;2.13;0.10;;;;;;;-0.48;49.02;101802.06;4983490;28;20612;-72
2023/04/02 02:17:29;;;;;;;3.97;1.23;;;;;;;-0.71;49.55;101799.88;5001483;28;20026;-71
2023/04/02 02:19:59;;;;;;;3.42;0.40;;;;;;;-0.44;48.87;101809.00;5001941;28;20450;-70
2023/04/02 02:22:37;;;;;;;1.50;0.30;;;;;;;-0.42;48.59;101815.03;4981122;28;20034;-70
2023/04/02 02:25:12;;;;;;;3.47;0.50;;;;;;;-0.47;48.94;101816.66;4986674;28;20833;-70
2023/04/02 02:27:46;;;;;;;4.40;0.30;;;;;;;-0.73;49.21;101818.66;4979766;28;20117;-70
2023/04/02 02:30:27;;;;;;;3.03;0.20;;;;;;;-0.42;48.58;101820.16;4985784;28;20704;-69
2023/04/02 02:33:02;;;;;;;1.60;0.20;;;;;;;-0.43;48.70;101833.88;4966012;28;20052;-70
2023/04/02 02:35:33;;;;;;;4.43;0.55;;;;;;;-0.40;48.41;101833.91;4985715;28;20092;-70
2023/04/02 02:38:22;;;;;;;2.40;0.27;;;;;;;-0.40;48.53;101836.47;5002176;28;20052;-70
2023/04/02 02:40:51;;;;;;;0.47;0.10;;;;;;;-0.52;48.78;101841.38;4996269;28;20304;-71
2023/04/02 02:43:18;;;;;;;0.35;0.20;;;;;;;-0.38;48.45;101842.53;4986847;28;20526;-72
2023/04/02 02:45:46;;;;;;;5.05;0.57;;;;;;;-0.29;47.95;101850.41;4986856;28;20045;-75
2023/04/02 02:48:17;;;;;;;1.08;0.13;;;;;;;-0.25;48.21;101859.06;4980163;28;20049;-73
2023/04/02 02:50:43;;;;;;;6.65;0.20;;;;;;;-0.46;48.41;101862.03;4968142;28;20034;-71
2023/04/02 02:53:28;;;;;;;9.75;1.65;;;;;;;-0.26;47.88;101865.91;4987108;28;20095;-74
2023/04/02 02:56:00;;;;;;;2.85;0.10;;;;;;;-0.44;48.58;101870.63;4978999;28;20033;-73
2023/04/02 02:58:33;;;;;;;2.60;0.38;;;;;;;-0.29;47.96;101872.69;4981913;28;20062;-71
2023/04/02 03:01:06;;;;;;;6.95;0.40;;;;;;;-0.21;47.63;101869.44;5006981;28;20026;-80
2023/04/02 03:03:34;;;;;;;3.00;0.10;;;;;;;-0.23;47.84;101875.38;5002716;28;20038;-74
2023/04/02 03:06:06;;;;;;;5.50;0.10;;;;;;;-0.49;48.73;101877.38;4991045;28;20034;-69
2023/04/02 03:08:39;;;;;;;1.02;0.40;;;;;;;-0.44;48.93;101875.78;4982276;28;20332;-73
2023/04/02 03:11:18;;;;;;;4.63;0.10;;;;;;;-0.24;48.28;101882.19;4981052;28;20415;-74
2023/04/02 03:13:49;;;;;;;3.45;0.10;;;;;;;-0.48;48.78;101889.38;4982227;28;20123;-73
2023/04/02 03:16:27;;;;;;;2.35;0.32;;;;;;;-0.48;48.80;101895.41;5002404;28;20430;-74
2023/04/02 03:19:37;;;;;;;1.88;0.30;;;;;;;-0.33;48.41;101894.84;4975399;28;20477;-74
2023/04/02 03:22:19;;;;;;;5.65;0.17;;;;;;;-0.27;48.01;101897.56;4999452;28;20040;-74
2023/04/02 03:24:48;;;;;;;4.05;0.10;;;;;;;-0.27;47.93;101904.41;4980842;28;20413;-73
2023/04/02 03:27:21;;;;;;;0.95;0.10;;;;;;;-0.19;47.73;101908.88;4999504;28;20645;-69
2023/04/02 03:30:03;;;;;;;3.58;0.52;;;;;;;-0.39;48.47;101917.88;4984615;28;20037;-70
2023/04/02 03:32:36;;;;;;;4.70;0.35;;;;;;;-0.40;48.58;101924.69;4978361;28;20069;-75
2023/04/02 03:35:23;;;;;;;2.58;0.17;;;;;;;-0.52;48.47;101928.69;5000808;28;20627;-74
2023/04/02 03:38:13;;;;;;;0.28;0.08;;;;;;;-0.26;47.93;101937.84;4978180;28;20490;-70
2023/04/02 03:40:52;;;;;;;2.28;0.17;;;;;;;-0.40;48.14;101934.94;4972747;28;20489;-73
2023/04/02 03:43:24;;;;;;;4.95;0.93;;;;;;;-0.45;48.23;101940.84;4982581;28;20794;-73
2023/04/02 03:46:02;;;;;;;0.93;0.40;;;;;;;-0.37;47.95;101944.44;4983286;28;20029;-73
2023/04/02 03:48:37;;;;;;;9.05;0.40;;;;;;;-0.39;47.73;101956.41;4969188;28;20038;-74
2023/04/02 03:51:16;;;;;;;3.45;0.20;;;;;;;-0.31;47.43;101957.41;4987354;28;20358;-74
2023/04/02 03:53:43;;;;;;;1.33;0.10;;;;;;;-0.18;47.12;101962.00;4999367;28;20665;-73
2023/04/02 03:56:25;;;;;;;4.90;0.13;;;;;;;-0.37;47.46;101970.13;5001373;28;20871;-76
2023/04/02 03:59:01;;;;;;;3.97;0.50;;;;;;;-0.33;47.84;101978.78;4963404;28;20049;-74
2023/04/02 04:01:34;;;;;;;2.38;0.32;;;;;;;-0.36;47.62;101969.31;4999833;28;20042;-75
2023/04/02 04:04:10;;;;;;;3.42;0.50;;;;;;;-0.41;48.03;101978.59;4983000;28;20045;-76
2023/04/02 04:06:41;;;;;;;2.00;0.32;;;;;;;-0.41;48.03;101981.19;4966591;28;20045;-76
2023/04/02 04:09:22;;;;;;;5.67;0.20;;;;;;;-0.50;48.37;101979.25;4985451;28;20125;-76
2023/04/02 04:11:51;;;;;;;12.10;0.22;;;;;;;-0.52;48.39;101980.06;4980641;28;20238;-76
2023/04/02 04:14:33;;;;;;;4.53;0.57;;;;;;;-0.30;47.56;101991.69;4982214;28;20065;-76
2023/04/02 04:17:14;;;;;;;4.57;0.55;;;;;;;-0.39;47.85;101997.50;5000500;28;20126;-76
2023/04/02 04:19:53;;;;;;;2.03;0.10;;;;;;;-0.54;48.31;102007.41;4980413;28;20062;-76
2023/04/02 04:22:29;;;;;;;0.50;0.10;;;;;;;-0.45;47.87;102017.91;4975914;28;20100;-75
2023/04/02 04:25:02;;;;;;;1.77;0.30;;;;;;;-0.75;48.68;102016.28;4984148;28;20066;-76
2023/04/02 04:27:41;;;;;;;5.18;0.10;;;;;;;-0.61;48.58;102014.94;4983247;28;20108;-75
2023/04/02 04:30:17;;;;;;;1.55;0.20;;;;;;;-0.61;48.81;102027.78;4967675;28;20042;-75
2023/04/02 04:33:04;;;;;;;2.40;0.10;;;;;;;-0.79;49.12;102032.47;4985416;28;20049;-75
2023/04/02 04:35:33;;;;;;;1.35;0.20;;;;;;;-0.61;48.69;102047.47;4981733;28;20072;-74
2023/04/02 04:38:11;;;;;;;1.40;0.32;;;;;;;-0.54;48.59;102043.34;4987963;28;20072;-76
2023/04/02 04:40:52;;;;;;;0.32;0.10;;;;;;;-0.79;49.17;102047.88;4991102;28;20034;-76
2023/04/02 04:43:28;;;;;;;3.35;0.20;;;;;;;-0.70;49.34;102053.25;5003356;28;20034;-76
2023/04/02 04:46:02;;;;;;;3.15;1.00;;;;;;;-0.65;49.01;102056.78;4981740;28;20032;-73
2023/04/02 04:48:37;;;;;;;1.65;0.00;;;;;;;-0.66;49.54;102060.19;4985649;28;20186;-73
2023/04/02 04:51:24;;;;;;;4.38;0.20;;;;;;;-0.73;49.51;102058.28;4980672;28;20057;-74
2023/04/02 04:53:53;;;;;;;0.75;0.10;;;;;;;-0.79;49.72;102068.41;4986883;28;20042;-72
2023/04/02 04:56:25;;;;;;;1.63;0.10;;;;;;;-0.58;49.59;102063.81;4986192;28;20102;-72
2023/04/02 04:59:04;;;;;;;2.55;0.20;;;;;;;-0.63;49.55;102070.53;4962845;28;20034;-73
2023/04/02 05:01:44;;;;;;;4.72;0.40;;;;;;;-0.51;49.61;102071.66;5002369;28;20113;-73
2023/04/02 05:04:22;;;;;;;3.17;0.20;;;;;;;-0.52;49.44;102073.38;4985488;28;20135;-73
2023/04/02 05:06:56;;;;;;;2.38;0.15;;;;;;;-0.52;49.48;102082.78;5000825;28;20065;-73
2023/04/02 05:09:34;;;;;;;0.43;0.20;;;;;;;-0.45;49.60;102089.81;4983663;28;20053;-73
2023/04/02 05:12:31;;;;;;;3.58;0.10;;;;;;;-0.60;50.25;102106.56;5003320;28;20034;-72
2023/04/02 05:15:00;;;;;;;2.22;0.17;;;;;;;-0.61;50.17;102114.25;4984149;28;20518;-73
2023/04/02 05:17:41;;;;;;;1.45;0.20;;;;;;;-0.64;50.09;102120.16;4986025;28;20029;-72
2023/04/02 05:20:30;;;;;;;2.22;0.20;;;;;;;-0.51;49.68;102125.59;4981540;28;20076;-73
2023/04/02 05:23:17;;;;;;;4.45;0.45;;;;;;;-0.27;49.35;102131.38;4977110;28;20052;-73
2023/04/02 05:26:07;;;;;;;3.78;0.38;;;;;;;-0.46;49.72;102134.28;4986337;28;20037;-73
2023/04/02 05:28:41;;;;;;;2.45;0.28;;;;;;;-0.41;49.51;102132.75;4985285;28;20218;-72
2023/04/02 05:31:18;;;;;;;0.22;0.05;;;;;;;-0.51;49.76;102147.00;5004656;28;20728;-74
2023/04/02 05:33:47;;;;;;;4.20;0.20;;;;;;;-0.36;49.42;102156.84;4965861;28;20045;-75
2023/04/02 05:36:21;;;;;;;2.00;0.15;;;;;;;-0.35;49.60;102153.41;4973718;28;20030;-74
2023/04/02 05:38:51;;;;;;;0.65;0.20;;;;;;;-0.29;49.09;102163.88;4984657;28;20700;-74
2023/04/02 05:41:35;;;;;;;0.45;0.10;;;;;;;-0.15;48.90;102161.63;4985123;28;20096;-74
2023/04/02 05:44:18;;;;;;;0.38;0.08;;;;;;;-0.10;48.95;102169.47;4971221;28;20506;-73
2023/04/02 05:46:53;;;;;;;0.63;0.22;;;;;;;-0.07;48.77;102174.69;4985236;28;20541;-73
2023/04/02 05:49:33;;;;;;;3.58;0.20;;;;;;;-0.31;49.31;102175.78;4988347;28;20048;-72
2023/04/02 05:52:02;;;;;;;2.17;0.10;;;;;;;0.18;48.73;102186.44;4965174;28;20064;-74
2023/04/02 05:54:36;;;;;;;3.20;0.20;;;;;;;0.52;48.22;102189.81;4983082;28;20041;-74
2023/04/02 05:57:05;;;;;;;7.93;0.20;;;;;;;0.96;46.32;102190.78;4987802;28;20034;-73
2023/04/02 05:59:46;;;;;;;2.33;0.15;;;;;;;1.69;45.35;102195.69;4983910;28;20042;-73
2023/04/02 06:02:29;;;;;;;0.13;0.00;;;;;;;2.25;43.32;102203.53;4981500;28;20414;-75
2023/04/02 06:05:05;;;;;;;0.98;0.25;;;;;;;3.82;40.61;102196.94;4986171;28;20554;-71
2023/04/02 06:07:43;;;;;;;1.90;0.50;;;;;;;5.08;37.10;102202.97;4997098;28;21089;-73
2023/04/02 06:10:21;;;;;;;1.33;0.22;;;;;;;6.71;34.12;102204.03;4984428;28;20092;-73
2023/04/02 06:12:53;;;;;;;1.98;0.10;;;;;;;7.42;32.46;102202.03;4974127;28;20042;-73
2023/04/02 06:15:22;;;;;;;2.33;0.15;;;;;;;7.34;32.60;102214.19;4964210;28;20037;-73
2023/04/02 06:17:58;;;;;;;0.60;0.10;;;;;;;8.14;31.16;102213.72;4981594;28;20714;-73
2023/04/02 06:20:24;;;;;;;0.85;0.20;;;;;;;9.27;30.64;102222.06;5001121;28;20558;-73
2023/04/02 06:23:01;;;;;;;1.95;0.10;;;;;;;9.19;28.77;102219.56;4984792;28;20085;-67
2023/04/02 06:25:55;;;;;;;1.00;0.10;;;;;;;9.97;28.22;102232.44;5000076;28;20126;-70
2023/04/02 06:28:46;;;;;;;2.92;0.63;;;;;;;9.85;28.31;102228.25;4982661;28;20041;-72
2023/04/02 06:31:52;;;;;;;2.50;0.10;;;;;;;10.05;27.37;102240.13;4975671;28;21017;-75
2023/04/02 06:34:23;;;;;;;1.60;0.10;;;;;;;10.09;27.63;102234.84;4972687;28;20602;-69
2023/04/02 06:36:59;;;;;;;0.47;0.10;;;;;;;10.99;26.33;102245.41;4976194;28;20096;-70
2023/04/02 06:39:27;;;;;;;1.27;0.03;;;;;;;11.16;25.99;102247.72;4977469;28;20049;-71
2023/04/02 06:42:10;;;;;;;1.90;0.30;;;;;;;10.36;27.13;102248.31;4997594;28;20041;-72
2023/04/02 06:45:22;;;;;;;1.65;0.10;;;;;;;10.32;27.31;102254.50;4941200;28;20667;-73
2023/04/02 06:48:15;;;;;;;2.38;0.00;;;;;;;11.25;26.23;102257.13;4976886;28;20046;-72
2023/04/02 06:51:06;;;;;;;0.38;0.10;;;;;;;11.69;25.23;102260.53;4998490;28;20041;-71
2023/04/02 06:53:36;;;;;;;0.85;0.10;;;;;;;11.12;25.52;102258.28;4980947;28;20070;-72
2023/04/02 06:56:26;;;;;;;4.80;0.80;;;;;;;11.88;24.95;102259.25;5000004;28;20529;-69
2023/04/02 06:58:52;;;;;;;1.02;0.10;;;;;;;11.47;25.45;102268.00;4996995;28;20073;-68
2023/04/02 07:01:24;;;;;;;0.03;0.00;;;;;;;11.19;25.89;102275.56;4978853;28;20140;-69
2023/04/02 07:03:50;;;;;;;3.65;0.10;;;;;;;11.94;24.41;102267.88;4976864;28;20065;-70
2023/04/02 07:06:34;;;;;;;3.45;0.10;;;;;;;11.20;25.35;102275.53;4982599;28;20045;-69
2023/04/02 07:09:00;;;;;;;1.23;0.10;;;;;;;10.71;25.93;102283.44;4968456;28;20091;-71
2023/04/02 07:11:26;;;;;;;4.18;0.10;;;;;;;11.62;24.82;102292.97;4965503;28;20405;-70
2023/04/02 07:13:55;;;;;;;2.25;0.20;;;;;;;11.64;24.43;102288.56;4977337;28;20042;-70
2023/04/02 07:16:24;;;;;;;1.48;0.20;;;;;;;12.19;24.60;102297.81;4999710;28;20041;-69
2023/04/02 07:18:50;;;;;;;0.52;0.00;;;;;;;12.14;24.02;102298.84;4967451;28;20993;-68
2023/04/02 07:21:16;;;;;;;4.30;0.60;;;;;;;11.65;24.14;102319.97;4977299;28;20033;-69
2023/04/02 07:23:43;;;;;;;0.57;0.03;;;;;;;12.14;23.98;102318.03;4983577;28;20045;-68
2023/04/02 07:26:14;;;;;;;1.00;0.10;;;;;;;12.29;23.86;102322.06;4983010;28;20454;-69
2023/04/02 07:28:40;;;;;;;3.05;0.15;;;;;;;11.54;25.00;102328.97;4977077;28;20065;-68
2023/04/02 07:31:22;;;;;;;3.70;0.20;;;;;;;12.36;24.03;102330.66;5000675;28;20721;-69
2023/04/02 07:33:49;;;;;;;1.85;0.17;;;;;;;12.50;24.00;102336.41;4982443;28;20127;-69
2023/04/02 07:36:18;;;;;;;1.77;0.10;;;;;;;12.90;23.46;102345.91;4980758;28;20037;-70
2023/04/02 07:38:43;;;;;;;0.77;0.10;;;;;;;13.16;23.20;102352.19;4982683;28;20072;-70
2023/04/02 07:41:11;;;;;;;5.05;0.20;;;;;;;13.25;22.69;102351.94;4986135;28;20410;-70
2023/04/02 07:43:38;;;;;;;1.45;0.03;;;;;;;13.52;22.25;102352.94;4983725;28;20033;-70
2023/04/02 07:46:04;;;;;;;0.70;0.17;;;;;;;13.51;22.71;102354.69;4982186;28;20061;-69
2023/04/02 07:48:30;;;;;;;0.95;0.20;;;;;;;14.21;22.04;102366.66;4976927;28;20060;-69
2023/04/02 07:50:57;;;;;;;1.23;0.20;;;;;;;14.97;22.21;102362.41;4984154;28;20592;-69
2023/04/02 07:53:34;;;;;;;2.22;0.25;;;;;;;15.17;21.13;102373.09;4996963;28;20038;-70
2023/04/02 07:56:01;;;;;;;0.65;0.10;;;;;;;13.22;22.75;102373.03;4983480;28;20172;-70
2023/04/02 07:58:28;;;;;;;0.90;0.10;;;;;;;12.35;24.42;102376.09;4984026;28;20042;-70
2023/04/02 08:00:54;;;;;;;2.15;0.45;;;;;;;11.31;25.09;102373.91;4974118;28;20061;-70
2023/04/02 08:03:20;;;;;;;0.57;0.03;;;;;;;12.09;25.03;102377.59;4979917;28;20525;-71
2023/04/02 08:05:51;;;;;;;0.35;0.05;;;;;;;12.33;24.10;102394.47;4983026;28;20506;-70
2023/04/02 08:08:18;;;;;;;2.65;0.10;;;;;;;13.09;22.73;102386.53;4980364;28;20049;-70
2023/04/02 08:10:43;;;;;;;1.65;0.10;;;;;;;13.22;23.57;102391.44;4987821;28;20042;-70
2023/04/02 08:13:09;;;;;;;0.85;0.10;;;;;;;13.93;23.33;102396.41;4996113;28;20164;-70
2023/04/02 08:15:34;;;;;;;1.38;0.00;;;;;;;13.60;22.91;102394.78;4993762;28;20038;-70
2023/04/02 08:18:00;;;;;;;2.42;0.13;;;;;;;13.23;23.56;102401.03;4988928;28;20093;-69
2023/04/02 08:20:25;;;;;;;0.88;0.15;;;;;;;13.03;23.32;102402.41;4984742;28;20033;-71
2023/04/02 08:22:51;;;;;;;0.45;0.10;;;;;;;12.41;24.34;102413.53;4981840;28;20049;-70
2023/04/02 08:25:16;;;;;;;1.88;0.10;;;;;;;12.07;25.22;102413.44;4980992;28;20078;-71
2023/04/02 08:27:42;;;;;;;1.17;0.10;;;;;;;12.69;24.42;102411.16;4983797;28;20060;-70
2023/04/02 08:30:08;;;;;;;0.15;0.00;;;;;;;13.42;22.69;102420.63;4977104;28;20124;-69
2023/04/02 08:32:34;;;;;;;1.85;0.20;;;;;;;13.11;23.68;102413.56;4978593;28;20237;-70
2023/04/02 08:35:00;;;;;;;0.45;0.30;;;;;;;13.93;22.55;102417.44;4982991;28;20916;-70
2023/04/02 08:37:26;;;;;;;1.60;0.10;;;;;;;12.90;23.93;102424.63;4963719;28;20266;-70
2023/04/02 08:39:51;;;;;;;1.02;0.10;;;;;;;12.43;24.18;102424.00;4973241;28;20041;-69
2023/04/02 08:42:42;;;;;;;1.77;0.38;;;;;;;12.35;25.04;102429.41;4975816;28;20108;-69
2023/04/02 08:45:22;;;;;;;2.45;0.08;;;;;;;11.78;25.35;102433.25;4974213;28;20283;-69
2023/04/02 08:47:50;;;;;;;2.20;0.55;;;;;;;12.35;25.39;102433.78;4995609;28;20077;-70
2023/04/02 08:50:35;;;;;;;3.78;0.10;;;;;;;12.39;24.97;102443.31;4980307;28;20618;-71
2023/04/02 08:53:20;;;;;;;0.43;0.10;;;;;;;12.64;25.11;102444.44;4978513;28;20088;-69
2023/04/02 08:55:51;;;;;;;3.60;0.45;;;;;;;11.04;27.12;102452.91;4963523;28;20030;-69
2023/04/02 08:58:31;;;;;;;3.58;0.40;;;;;;;10.36;26.62;102453.03;4979455;28;20169;-69
2023/04/02 09:01:01;;;;;;;2.25;0.40;;;;;;;9.77;28.60;102455.50;4980861;28;20072;-69
2023/04/02 09:03:34;;;;;;;1.17;0.10;;;;;;;9.46;28.99;102459.34;4977869;28;20037;-69
2023/04/02 09:06:02;;;;;;;1.83;0.10;;;;;;;8.89;29.93;102465.88;4978044;28;20132;-70
2023/04/02 09:08:30;;;;;;;4.90;0.22;;;;;;;9.21;29.91;102470.00;4993463;28;20048;-70
2023/04/02 09:11:08;;;;;;;7.07;1.95;;;;;;;8.92;29.15;102465.88;4983776;28;20037;-69
2023/04/02 09:13:39;;;;;;;4.97;0.77;;;;;;;7.91;31.88;102477.69;4966067;28;20054;-70
2023/04/02 09:16:04;;;;;;;1.37;0.10;;;;;;;8.59;31.56;102481.72;4984695;28;20034;-69
2023/04/02 09:18:32;;;;;;;1.00;0.00;;;;;;;8.42;30.76;102487.88;4983455;28;20057;-68
2023/04/02 09:21:00;;;;;;;3.35;0.70;;;;;;;7.59;31.61;102495.97;4974760;28;20033;-68
2023/04/02 09:23:26;;;;;;;2.40;0.52;;;;;;;7.86;32.13;102486.38;4976324;28;20821;-69
2023/04/02 09:25:53;;;;;;;1.63;0.00;;;;;;;8.34;31.98;102490.53;4989497;28;20036;-69
2023/04/02 09:28:20;;;;;;;1.13;0.20;;;;;;;8.33;31.39;102493.13;4978289;28;20037;-70
2023/04/02 09:31:15;;;;;;;4.13;0.57;;;;;;;8.96;30.23;102493.69;4976277;28;20038;-69
2023/04/02 09:33:47;;;;;;;1.33;0.08;;;;;;;8.49;31.45;102506.97;5002039;28;20066;-69
2023/04/02 09:36:38;;;;;;;1.35;0.00;;;;;;;7.62;32.74;102505.50;4987696;28;20056;-68
2023/04/02 09:39:16;;;;;;;2.78;0.10;;;;;;;8.44;31.55;102512.19;5006370;28;20053;-69
2023/04/02 09:41:42;;;;;;;4.43;0.10;;;;;;;8.58;32.37;102514.72;4989277;28;20037;-69
2023/04/02 09:44:26;;;;;;;4.82;0.30;;;;;;;8.66;30.81;102512.09;4994648;28;20077;-70
2023/04/02 09:46:58;;;;;;;1.30;0.30;;;;;;;8.35;30.96;102517.44;4999255;28;20150;-69
2023/04/02 09:49:27;;;;;;;0.90;0.20;;;;;;;8.44;31.80;102525.22;4983010;28;20046;-70
2023/04/02 09:52:20;;;;;;;2.20;0.10;;;;;;;7.92;32.89;102515.88;5004461;28;20030;-69
2023/04/02 09:55:15;;;;;;;4.60;0.20;;;;;;;8.19;31.23;102534.03;4987889;28;20186;-71
2023/04/02 09:57:41;;;;;;;0.52;0.00;;;;;;;8.32;31.37;102523.53;4983287;28;20042;-70
2023/04/02 10:00:26;;;;;;;1.40;0.10;;;;;;;9.02;31.29;102533.63;4990868;28;20025;-70
2023/04/02 10:02:59;;;;;;;1.83;0.20;;;;;;;9.24;30.80;102532.56;4986383;28;20046;-69
2023/04/02 10:05:26;;;;;;;0.52;0.20;;;;;;;8.72;31.70;102535.56;5003106;28;20037;-69
2023/04/02 10:07:53;;;;;;;0.50;0.10;;;;;;;8.62;30.29;102533.81;4976736;28;20042;-70
2023/04/02 10:10:34;;;;;;;2.22;0.10;;;;;;;8.73;30.75;102545.09;5001763;28;20088;-70
2023/04/02 10:13:08;;;;;;;2.60;0.10;;;;;;;9.18;31.57;102545.66;5000147;28;20045;-70
2023/04/02 10:15:45;;;;;;;1.15;0.10;;;;;;;9.24;30.52;102540.41;4980412;28;20453;-69
2023/04/02 10:18:13;;;;;;;0.55;0.20;;;;;;;8.68;30.56;102552.06;4978113;28;20160;-70
2023/04/02 10:20:41;;;;;;;2.92;0.10;;;;;;;9.18;31.82;102549.13;4986468;28;20586;-69
2023/04/02 10:23:15;;;;;;;0.52;0.43;;;;;;;9.40;29.89;102557.66;4987058;28;20764;-70
2023/04/02 10:25:48;;;;;;;2.20;0.10;;;;;;;8.99;30.12;102560.59;4988390;28;20041;-69
2023/04/02 10:28:52;;;;;;;2.35;0.15;;;;;;;8.51;31.57;102568.63;4996519;28;20491;-70
2023/04/02 10:31:24;;;;;;;3.47;0.20;;;;;;;8.26;31.26;102570.44;4975205;28;20487;-70
2023/04/02 10:33:56;;;;;;;0.68;0.10;;;;;;;7.92;32.12;102582.69;4986044;28;20081;-70
2023/04/02 10:36:40;;;;;;;2.85;0.10;;;;;;;8.89;30.62;102585.84;4985714;28;20182;-69
2023/04/02 10:39:18;;;;;;;0.80;0.10;;;;;;;9.18;30.49;102592.63;4984457;28;20111;-69
2023/04/02 10:41:50;;;;;;;0.80;0.10;;;;;;;9.49;29.76;102597.63;4985836;28;20030;-70
2023/04/02 10:44:30;;;;;;;;;;;;;;;9.72;28.89;102592.19;4988229;28;20034;-70
2023/04/02 10:47:06;;;;;;;0.15;0.00;;;;;;;9.63;29.54;102595.75;4982908;28;19917;-68
2023/04/02 10:49:46;;;;;;;0.40;0.00;;;;;;;8.98;29.72;102591.03;4976642;28;20050;-69
2023/04/02 10:52:32;;;;;;;1.25;0.25;;;;;;;9.14;29.25;102596.13;4985444;28;20533;-69
2023/04/02 10:55:04;;;;;;;2.28;0.05;;;;;;;9.20;28.90;102611.75;4984894;28;20107;-68
2023/04/02 10:57:36;;;;;;;1.55;0.03;;;;;;;9.57;29.68;102607.13;4999155;28;20823;-69
2023/04/02 11:00:17;;;;;;;1.15;0.00;;;;;;;8.98;29.74;102606.69;4979793;28;20060;-69
2023/04/02 11:03:06;;;;;;;0.40;0.10;;;;;;;8.96;30.20;102616.25;4983488;28;20054;-70
2023/04/02 11:05:50;;;;;;;0.60;0.10;;;;;;;8.65;29.86;102612.00;4984554;28;20052;-70
2023/04/02 11:08:42;;;;;;;2.70;0.28;;;;;;;8.27;30.59;102620.81;4982284;28;20049;-70
2023/04/02 11:11:19;;;;;;;0.22;0.00;;;;;;;8.55;29.56;102617.25;4985481;28;20042;-69
2023/04/02 11:13:59;;;;;;;2.42;0.10;;;;;;;7.25;32.27;102620.81;4980218;28;20534;-73
2023/04/02 11:16:26;;;;;;;1.77;0.13;;;;;;;8.52;30.51;102617.28;4985122;28;20034;-73
2023/04/02 11:19:16;;;;;;;0.52;0.10;;;;;;;8.00;30.47;102621.72;4986096;28;20045;-71
2023/04/02 11:21:44;;;;;;;0.80;0.10;;;;;;;8.22;30.38;102625.16;4984838;28;20034;-70
2023/04/02 11:24:38;;;;;;;1.10;0.10;;;;;;;8.47;30.10;102629.47;4988385;28;20046;-69
2023/04/02 11:27:24;;;;;;;1.27;0.10;;;;;;;8.67;29.31;102631.09;4986635;28;20044;-70
2023/04/02 11:29:57;;;;;;;1.00;0.10;;;;;;;8.36;29.80;102628.63;4983033;28;20698;-68
2023/04/02 11:32:24;;;;;;;3.00;0.85;;;;;;;8.57;30.86;102623.31;4965266;28;20113;-69
2023/04/02 11:34:49;;;;;;;1.42;0.20;;;;;;;9.32;30.87;102627.34;4981090;28;20131;-69
2023/04/02 11:37:35;;;;;;;3.42;0.40;;;;;;;9.01;29.30;102641.41;4984355;28;20534;-70
2023/04/02 11:40:22;;;;;;;3.65;0.10;;;;;;;8.89;28.67;102631.91;4983991;28;20041;-70
2023/04/02 11:42:49;;;;;;;0.93;0.10;;;;;;;8.47;30.05;102644.22;4973234;28;20053;-72
2023/04/02 11:45:21;;;;;;;1.05;0.10;;;;;;;8.05;30.18;102649.50;4978672;28;20562;-70
2023/04/02 11:47:59;;;;;;;1.95;0.10;;;;;;;9.02;29.51;102648.38;5001628;28;20054;-72
2023/04/02 11:50:40;;;;;;;1.38;0.08;;;;;;;9.53;28.74;102655.00;4976514;28;20041;-73
2023/04/02 11:53:09;;;;;;;0.20;0.00;;;;;;;9.65;27.91;102656.66;4979804;28;20498;-71
2023/04/02 11:55:39;;;;;;;0.38;0.10;;;;;;;9.96;29.03;102661.66;4995995;28;20049;-70
2023/04/02 11:58:43;;;;;;;2.80;0.00;;;;;;;9.26;28.13;102656.06;4974858;28;20133;-70
2023/04/02 12:01:49;;;;;;;0.45;0.00;;;;;;;9.53;27.00;102670.69;4985061;28;20035;-70
2023/04/02 12:04:36;;;;;;;0.80;0.05;;;;;;;9.21;26.99;102664.78;4980790;28;20827;-73